createdAt,value
2022-08-26T00:01:15.762Z,48.92
2022-08-26T00:03:42.097Z,49.09
2022-08-26T00:06:09.614Z,49.17
2022-08-26T00:08:39.000Z,49.21
2022-08-26T00:11:08.689Z,49.41
2022-08-26T00:13:36.433Z,49.80
2022-08-26T00:16:04.112Z,49.86
2022-08-26T00:18:30.946Z,50.14
2022-08-26T00:21:06.469Z,50.31
2022-08-26T00:23:33.292Z,50.56
2022-08-26T00:26:01.625Z,50.59
2022-08-26T00:28:27.887Z,50.96
2022-08-26T00:30:54.546Z,51.43
2022-08-26T00:33:22.244Z,51.37
2022-08-26T00:35:49.175Z,51.53
2022-08-26T00:38:18.070Z,51.73
2022-08-26T00:40:48.313Z,51.86
2022-08-26T00:43:15.748Z,52.09
2022-08-26T00:45:48.456Z,52.20
2022-08-26T00:48:18.408Z,52.37
2022-08-26T00:51:01.087Z,52.37
2022-08-26T00:53:31.410Z,52.60
2022-08-26T00:56:04.464Z,52.60
2022-08-26T00:58:33.631Z,52.66
2022-08-26T01:01:00.847Z,53.13
2022-08-26T01:03:30.614Z,53.21
2022-08-26T01:05:59.961Z,53.37
2022-08-26T01:08:26.704Z,53.70
2022-08-26T01:10:56.808Z,53.72
2022-08-26T01:13:24.814Z,54.10
2022-08-26T01:15:55.934Z,54.34
2022-08-26T01:18:24.840Z,54.77
2022-08-26T01:21:15.116Z,54.76
2022-08-26T01:23:49.599Z,55.13
2022-08-26T01:26:21.448Z,55.14
2022-08-26T01:28:51.526Z,55.13
2022-08-26T01:31:21.764Z,55.13
2022-08-26T01:34:11.635Z,55.15
2022-08-26T01:36:38.684Z,55.30
2022-08-26T01:39:07.319Z,55.28
2022-08-26T01:41:37.616Z,55.62
2022-08-26T01:44:08.069Z,55.75
2022-08-26T01:46:37.148Z,55.78
2022-08-26T01:49:06.577Z,55.76
2022-08-26T01:51:39.066Z,56.13
2022-08-26T01:54:08.489Z,56.19
2022-08-26T01:56:39.386Z,56.29
2022-08-26T01:59:11.092Z,56.31
2022-08-26T02:01:38.849Z,56.20
2022-08-26T02:04:14.465Z,56.14
2022-08-26T02:06:41.561Z,55.81
2022-08-26T02:09:08.204Z,55.59
2022-08-26T02:11:36.863Z,55.70
2022-08-26T02:14:11.091Z,56.09
2022-08-26T02:16:42.819Z,56.06
2022-08-26T02:19:17.024Z,56.10
2022-08-26T02:21:46.337Z,56.37
2022-08-26T02:24:22.645Z,56.04
2022-08-26T02:26:51.283Z,56.14
2022-08-26T02:29:26.187Z,56.11
2022-08-26T02:31:55.547Z,56.01
2022-08-26T02:34:28.230Z,56.09
2022-08-26T02:37:00.757Z,56.18
2022-08-26T02:39:29.309Z,56.19
2022-08-26T02:41:57.646Z,56.34
2022-08-26T02:44:23.769Z,56.51
2022-08-26T02:46:54.330Z,56.73
2022-08-26T02:49:23.110Z,56.84
2022-08-26T02:51:50.068Z,56.89
2022-08-26T02:54:20.899Z,56.95
2022-08-26T02:56:47.630Z,57.19
2022-08-26T02:59:13.983Z,57.36
2022-08-26T03:01:40.709Z,57.40
2022-08-26T03:04:09.873Z,57.61
2022-08-26T03:06:37.579Z,57.58
2022-08-26T03:09:05.384Z,57.74
2022-08-26T03:11:33.121Z,57.76
2022-08-26T03:14:00.738Z,57.88
2022-08-26T03:16:34.750Z,57.74
2022-08-26T03:19:04.120Z,57.93
2022-08-26T03:21:30.762Z,58.05
2022-08-26T03:23:58.632Z,58.04
2022-08-26T03:26:26.867Z,58.38
2022-08-26T03:29:13.559Z,58.58
2022-08-26T03:31:40.563Z,58.96
2022-08-26T03:34:07.462Z,59.07
2022-08-26T03:36:35.043Z,59.32
2022-08-26T03:39:02.190Z,59.50
2022-08-26T03:41:32.081Z,59.69
2022-08-26T03:44:01.651Z,59.93
2022-08-26T03:46:28.582Z,60.17
2022-08-26T03:48:55.421Z,60.40
2022-08-26T03:51:21.528Z,60.32
2022-08-26T03:53:47.755Z,60.12
2022-08-26T03:56:14.973Z,60.32
2022-08-26T03:58:42.779Z,60.46
2022-08-26T04:01:10.565Z,60.43
2022-08-26T04:04:03.185Z,60.61
2022-08-26T04:06:33.553Z,60.38
2022-08-26T04:09:04.818Z,60.50
2022-08-26T04:11:34.384Z,60.33
2022-08-26T04:14:05.139Z,60.29
2022-08-26T04:16:31.818Z,60.33
2022-08-26T04:18:58.513Z,60.29
2022-08-26T04:21:26.343Z,60.30
2022-08-26T04:23:53.697Z,60.02
2022-08-26T04:26:22.557Z,60.23
2022-08-26T04:28:52.677Z,60.25
2022-08-26T04:31:19.566Z,60.36
2022-08-26T04:33:49.625Z,60.33
2022-08-26T04:36:17.026Z,60.42
2022-08-26T04:38:45.761Z,60.50
2022-08-26T04:41:15.661Z,60.61
2022-08-26T04:43:46.421Z,60.37
2022-08-26T04:46:15.982Z,60.35
2022-08-26T04:48:43.008Z,60.38
2022-08-26T04:51:10.325Z,60.22
2022-08-26T04:53:37.222Z,60.02
2022-08-26T04:56:04.450Z,60.13
2022-08-26T04:58:31.788Z,60.14
2022-08-26T05:00:58.242Z,60.18
2022-08-26T05:03:26.960Z,60.05
2022-08-26T05:05:53.906Z,60.03
2022-08-26T05:08:22.934Z,59.97
2022-08-26T05:10:55.597Z,59.95
2022-08-26T05:13:24.490Z,60.00
2022-08-26T05:15:50.712Z,59.92
2022-08-26T05:18:20.747Z,59.84
2022-08-26T05:20:49.890Z,59.64
2022-08-26T05:23:17.798Z,59.76
2022-08-26T05:25:47.561Z,59.70
2022-08-26T05:28:15.676Z,59.51
2022-08-26T05:30:42.198Z,59.17
2022-08-26T05:33:11.870Z,59.26
2022-08-26T05:35:39.145Z,59.07
2022-08-26T05:38:12.796Z,58.73
2022-08-26T05:40:43.906Z,58.26
2022-08-26T05:43:12.864Z,57.84
2022-08-26T05:45:45.998Z,57.91
2022-08-26T05:48:14.531Z,57.37
2022-08-26T05:50:47.069Z,57.08
2022-08-26T05:53:16.364Z,56.67
2022-08-26T05:55:49.644Z,56.55
2022-08-26T05:58:17.395Z,56.40
2022-08-26T06:00:44.712Z,56.36
2022-08-26T06:03:11.208Z,56.20
2022-08-26T06:05:39.959Z,56.27
2022-08-26T06:08:13.933Z,55.94
2022-08-26T06:10:53.052Z,55.60
2022-08-26T06:13:23.336Z,55.40
2022-08-26T06:15:51.016Z,55.45
2022-08-26T06:18:21.820Z,55.40
2022-08-26T06:20:56.988Z,55.38
2022-08-26T06:23:46.271Z,55.62
2022-08-26T06:26:15.361Z,55.53
2022-08-26T06:28:43.650Z,55.47
2022-08-26T06:31:12.794Z,55.15
2022-08-26T06:33:39.280Z,55.13
2022-08-26T06:36:06.375Z,54.99
2022-08-26T06:38:32.804Z,54.84
2022-08-26T06:40:59.844Z,54.76
2022-08-26T06:43:29.174Z,54.92
2022-08-26T06:46:04.981Z,54.68
2022-08-26T06:48:32.126Z,54.39
2022-08-26T06:51:02.840Z,54.50
2022-08-26T06:53:28.938Z,54.05
2022-08-26T06:55:55.373Z,53.92
2022-08-26T06:58:23.124Z,53.88
2022-08-26T07:00:51.030Z,53.60
2022-08-26T07:03:17.785Z,53.46
2022-08-26T07:05:44.632Z,52.64
2022-08-26T07:08:12.018Z,52.49
2022-08-26T07:10:38.438Z,52.38
2022-08-26T07:13:06.119Z,52.01
2022-08-26T07:15:35.711Z,51.88
2022-08-26T07:18:02.574Z,51.45
2022-08-26T07:20:28.771Z,51.18
2022-08-26T07:22:54.964Z,51.01
2022-08-26T07:25:21.044Z,50.83
2022-08-26T07:27:54.502Z,50.87
2022-08-26T07:30:21.032Z,50.33
2022-08-26T07:32:47.820Z,50.12
2022-08-26T07:35:15.280Z,50.23
2022-08-26T07:37:42.430Z,50.02
2022-08-26T07:40:09.432Z,50.01
2022-08-26T07:42:35.703Z,49.87
2022-08-26T07:45:01.941Z,49.61
2022-08-26T07:47:28.107Z,49.46
2022-08-26T07:49:57.111Z,49.14
2022-08-26T07:52:28.216Z,48.93
2022-08-26T07:55:00.415Z,48.56
2022-08-26T07:57:28.634Z,48.41
2022-08-26T07:59:55.795Z,48.52
2022-08-26T08:02:23.294Z,48.32
2022-08-26T08:04:49.640Z,48.17
2022-08-26T08:07:16.409Z,47.98
2022-08-26T08:09:42.488Z,47.99
2022-08-26T08:12:09.034Z,48.18
2022-08-26T08:14:44.677Z,48.06
2022-08-26T08:19:43.262Z,47.69
2022-08-26T08:22:17.927Z,47.54
2022-08-26T08:24:49.685Z,46.53
2022-08-26T08:27:19.129Z,46.00
2022-08-26T08:29:47.902Z,45.43
2022-08-26T08:32:15.434Z,45.48
2022-08-26T08:37:13.045Z,45.29
2022-08-26T08:39:39.180Z,45.12
2022-08-26T08:42:27.888Z,44.80
2022-08-26T08:44:58.866Z,43.91
2022-08-26T08:47:42.563Z,43.82
2022-08-26T08:50:20.880Z,43.10
2022-08-26T08:53:01.855Z,42.94
2022-08-26T08:55:36.105Z,42.97
2022-08-26T08:58:12.874Z,42.84
2022-08-26T09:01:04.784Z,42.81
2022-08-26T09:03:55.371Z,42.93
2022-08-26T09:06:21.585Z,42.96
2022-08-26T09:08:50.569Z,42.98
2022-08-26T09:11:20.003Z,42.74
2022-08-26T09:13:51.167Z,42.61
2022-08-26T09:16:27.067Z,42.20
2022-08-26T09:19:05.567Z,42.13
2022-08-26T09:21:32.240Z,41.57
2022-08-26T09:23:59.243Z,41.31
2022-08-26T09:26:40.687Z,41.05
2022-08-26T09:29:24.360Z,40.83
2022-08-26T09:31:52.334Z,40.59
2022-08-26T09:34:25.989Z,39.96
2022-08-26T09:36:59.203Z,39.08
2022-08-26T09:39:28.691Z,38.72
2022-08-26T09:42:04.031Z,38.82
2022-08-26T09:44:31.224Z,38.76
2022-08-26T09:47:01.424Z,38.22
2022-08-26T09:49:36.306Z,38.01
2022-08-26T09:52:25.497Z,37.97
2022-08-26T09:55:22.559Z,37.39
2022-08-26T09:57:54.542Z,36.85
2022-08-26T10:00:57.068Z,36.97
2022-08-26T10:03:28.256Z,37.44
2022-08-26T10:06:02.273Z,37.16
2022-08-26T10:08:33.296Z,36.78
2022-08-26T10:11:11.087Z,36.85
2022-08-26T10:13:42.582Z,36.74
2022-08-26T10:16:20.836Z,36.77
2022-08-26T10:19:09.021Z,36.54
2022-08-26T10:21:38.598Z,37.05
2022-08-26T10:24:07.642Z,36.44
2022-08-26T10:26:44.068Z,36.42
2022-08-26T10:29:27.780Z,35.99
2022-08-26T10:32:02.647Z,36.06
2022-08-26T10:34:33.658Z,36.39
2022-08-26T10:37:13.712Z,36.50
2022-08-26T10:39:49.221Z,36.32
2022-08-26T10:42:34.702Z,35.91
2022-08-26T10:45:24.868Z,35.57
2022-08-26T10:48:05.246Z,34.37
2022-08-26T10:50:35.461Z,34.08
2022-08-26T10:53:25.015Z,33.28
2022-08-26T10:56:04.192Z,32.99
2022-08-26T10:59:12.217Z,33.00
2022-08-26T11:01:57.914Z,33.03
2022-08-26T11:04:45.617Z,32.53
2022-08-26T11:07:38.935Z,32.69
2022-08-26T11:10:12.239Z,31.99
2022-08-26T11:12:41.733Z,31.81
2022-08-26T11:15:24.706Z,31.41
2022-08-26T11:17:51.000Z,31.04
2022-08-26T11:20:23.719Z,30.29
2022-08-26T11:22:51.837Z,29.75
2022-08-26T11:25:19.943Z,29.27
2022-08-26T11:27:50.424Z,29.35
2022-08-26T11:30:18.357Z,28.89
2022-08-26T11:32:52.017Z,28.54
2022-08-26T11:35:18.816Z,28.63
2022-08-26T11:37:59.961Z,28.80
2022-08-26T11:40:29.140Z,29.26
2022-08-26T11:43:29.841Z,28.91
2022-08-26T11:46:11.593Z,28.23
2022-08-26T11:48:41.507Z,28.02
2022-08-26T11:51:20.224Z,27.81
2022-08-26T11:53:47.072Z,27.39
2022-08-26T11:56:27.356Z,26.98
2022-08-26T11:59:00.584Z,26.18
2022-08-26T12:01:39.635Z,26.05
2022-08-26T12:04:10.229Z,25.61
2022-08-26T12:06:49.744Z,25.35
2022-08-26T12:09:29.710Z,24.95
2022-08-26T12:12:15.136Z,24.49
2022-08-26T12:14:42.296Z,24.33
2022-08-26T12:17:10.118Z,23.96
2022-08-26T12:19:36.868Z,23.85
2022-08-26T12:22:18.416Z,23.83
2022-08-26T12:24:59.156Z,23.81
2022-08-26T12:27:28.394Z,23.29
2022-08-26T12:30:14.796Z,22.87
2022-08-26T12:32:50.996Z,22.52
2022-08-26T12:35:25.039Z,22.54
2022-08-26T12:37:53.513Z,23.00
2022-08-26T12:40:46.343Z,22.86
2022-08-26T12:43:34.345Z,22.93
2022-08-26T12:46:01.189Z,22.83
2022-08-26T12:48:32.377Z,22.66
2022-08-26T12:51:00.243Z,22.66
2022-08-26T12:53:33.025Z,22.42
2022-08-26T12:56:04.087Z,21.64
2022-08-26T12:58:37.777Z,21.25
2022-08-26T13:01:04.217Z,20.67
2022-08-26T13:03:33.363Z,20.18
2022-08-26T13:06:15.650Z,20.10
2022-08-26T13:08:47.762Z,19.84
2022-08-26T13:11:21.735Z,19.45
2022-08-26T13:13:51.406Z,19.51
2022-08-26T13:16:19.802Z,19.80
2022-08-26T13:18:51.943Z,19.58
2022-08-26T13:21:24.705Z,19.64
2022-08-26T13:23:51.951Z,19.63
2022-08-26T13:26:19.315Z,19.54
2022-08-26T13:28:48.631Z,19.62
2022-08-26T13:31:30.810Z,19.83
2022-08-26T13:33:57.105Z,19.78
2022-08-26T13:36:23.455Z,19.84
2022-08-26T13:38:52.097Z,19.69
2022-08-26T13:41:29.612Z,20.03
2022-08-26T13:43:58.806Z,20.15
2022-08-26T13:46:26.770Z,20.25
2022-08-26T13:48:54.080Z,20.35
2022-08-26T13:51:22.349Z,20.49
2022-08-26T13:53:49.943Z,20.45
2022-08-26T13:56:16.350Z,20.51
2022-08-26T13:58:42.991Z,20.51
2022-08-26T14:01:16.595Z,20.49
2022-08-26T14:03:44.715Z,20.60
2022-08-26T14:06:11.831Z,20.51
2022-08-26T14:08:40.609Z,20.70
2022-08-26T14:11:07.999Z,20.77
2022-08-26T14:13:34.476Z,21.38
2022-08-26T14:16:03.104Z,21.52
2022-08-26T14:18:39.713Z,21.67
2022-08-26T14:21:12.211Z,21.87
2022-08-26T14:23:39.688Z,22.24
2022-08-26T14:26:07.890Z,22.06
2022-08-26T14:28:35.104Z,22.43
2022-08-26T14:31:03.188Z,22.46
2022-08-26T14:33:37.692Z,22.76
2022-08-26T14:36:24.149Z,22.95
2022-08-26T14:38:50.559Z,22.75
2022-08-26T14:41:18.466Z,22.62
2022-08-26T14:43:49.539Z,22.64
2022-08-26T14:46:17.476Z,22.48
2022-08-26T14:48:44.457Z,22.50
2022-08-26T14:51:10.723Z,22.64
2022-08-26T14:53:55.762Z,22.26
2022-08-26T14:56:22.130Z,21.80
2022-08-26T14:58:48.825Z,21.89
2022-08-26T15:01:15.613Z,21.95
2022-08-26T15:03:42.241Z,21.91
2022-08-26T15:06:17.147Z,21.82
2022-08-26T15:08:43.397Z,21.78
2022-08-26T15:11:09.947Z,21.76
2022-08-26T15:13:36.104Z,21.78
2022-08-26T15:16:02.624Z,21.75
2022-08-26T15:18:29.071Z,21.61
2022-08-26T15:20:55.289Z,21.33
2022-08-26T15:23:21.659Z,21.33
2022-08-26T15:25:48.294Z,21.52
2022-08-26T15:28:14.574Z,21.44
2022-08-26T15:30:41.339Z,21.50
2022-08-26T15:33:07.633Z,21.37
2022-08-26T15:35:43.174Z,21.43
2022-08-26T15:38:10.658Z,21.20
2022-08-26T15:40:37.236Z,20.93
2022-08-26T15:43:25.417Z,20.99
2022-08-26T15:45:50.989Z,21.05
2022-08-26T15:48:17.117Z,21.05
2022-08-26T15:50:58.384Z,21.26
2022-08-26T15:53:25.837Z,21.55
2022-08-26T15:55:56.459Z,21.56
2022-08-26T15:58:24.317Z,21.38
2022-08-26T16:00:54.164Z,21.52
2022-08-26T16:03:20.699Z,21.86
2022-08-26T16:05:47.210Z,21.82
2022-08-26T16:08:15.015Z,22.01
2022-08-26T16:10:50.043Z,22.13
2022-08-26T16:13:18.418Z,22.15
2022-08-26T16:15:47.530Z,22.34
2022-08-26T16:18:15.052Z,22.36
2022-08-26T16:20:55.212Z,22.44
2022-08-26T16:23:36.751Z,22.65
2022-08-26T16:26:12.617Z,22.74
2022-08-26T16:28:38.777Z,22.87
2022-08-26T16:31:06.461Z,23.12
2022-08-26T16:33:32.928Z,23.25
2022-08-26T16:35:59.276Z,23.51
2022-08-26T16:38:25.395Z,23.63
2022-08-26T16:40:51.615Z,23.89
2022-08-26T16:43:17.985Z,24.25
2022-08-26T16:45:44.216Z,24.18
2022-08-26T16:48:11.203Z,24.43
2022-08-26T16:50:40.253Z,24.66
2022-08-26T16:53:06.509Z,24.89
2022-08-26T16:55:32.857Z,25.25
2022-08-26T16:57:59.173Z,25.33
2022-08-26T17:00:28.925Z,25.49
2022-08-26T17:02:57.109Z,25.64
2022-08-26T17:05:24.743Z,25.96
2022-08-26T17:07:52.973Z,25.93
2022-08-26T17:10:21.549Z,25.84
2022-08-26T17:12:48.595Z,26.11
2022-08-26T17:15:16.305Z,26.27
2022-08-26T17:17:43.814Z,26.50
2022-08-26T17:20:13.291Z,26.62
2022-08-26T17:22:43.391Z,26.60
2022-08-26T17:25:13.058Z,26.79
2022-08-26T17:27:40.368Z,27.32
2022-08-26T17:30:07.398Z,27.13
2022-08-26T17:32:33.634Z,27.19
2022-08-26T17:35:01.065Z,27.52
2022-08-26T17:37:27.870Z,27.63
2022-08-26T17:39:54.271Z,27.97
2022-08-26T17:42:20.546Z,28.23
2022-08-26T17:44:57.962Z,28.38
2022-08-26T17:47:24.163Z,28.56
2022-08-26T17:49:50.413Z,28.96
2022-08-26T17:52:16.880Z,29.18
2022-08-26T17:54:43.072Z,29.31
2022-08-26T17:57:10.643Z,29.51
2022-08-26T17:59:38.218Z,29.69
2022-08-26T18:02:07.330Z,30.01
2022-08-26T18:04:33.705Z,30.15
2022-08-26T18:07:00.945Z,30.36
2022-08-26T18:09:30.750Z,30.60
2022-08-26T18:11:57.796Z,30.83
2022-08-26T18:14:24.033Z,30.98
2022-08-26T18:16:50.564Z,31.27
2022-08-26T18:19:16.962Z,31.73
2022-08-26T18:21:44.222Z,31.88
2022-08-26T18:24:13.976Z,32.19
2022-08-26T18:26:47.534Z,32.31
2022-08-26T18:29:15.851Z,32.43
2022-08-26T18:31:42.593Z,32.58
2022-08-26T18:34:12.385Z,32.92
2022-08-26T18:36:39.807Z,33.32
2022-08-26T18:39:07.689Z,33.47
2022-08-26T18:41:44.136Z,33.70
2022-08-26T18:44:13.799Z,34.07
2022-08-26T18:46:40.644Z,34.31
2022-08-26T18:49:07.780Z,34.49
2022-08-26T18:51:34.557Z,34.72
2022-08-26T18:54:04.034Z,34.88
2022-08-26T18:56:30.924Z,34.99
2022-08-26T18:58:58.578Z,35.24
2022-08-26T19:01:27.689Z,35.44
2022-08-26T19:03:55.601Z,35.92
2022-08-26T19:06:23.375Z,35.99
2022-08-26T19:08:50.243Z,36.22
2022-08-26T19:11:18.482Z,36.28
2022-08-26T19:14:00.905Z,36.72
2022-08-26T19:16:28.456Z,36.51
2022-08-26T19:18:55.705Z,36.91
2022-08-26T19:21:22.801Z,37.10
2022-08-26T19:23:49.864Z,37.14
2022-08-26T19:26:16.289Z,37.25
2022-08-26T19:28:42.874Z,37.66
2022-08-26T19:31:12.036Z,37.90
2022-08-26T19:33:41.319Z,38.23
2022-08-26T19:36:14.120Z,38.05
2022-08-26T19:38:42.313Z,38.44
2022-08-26T19:41:11.963Z,38.73
2022-08-26T19:43:38.610Z,38.66
2022-08-26T19:46:12.881Z,39.15
2022-08-26T19:48:43.926Z,38.97
2022-08-26T19:51:20.030Z,39.15
2022-08-26T19:53:49.175Z,39.43
2022-08-26T19:56:16.590Z,39.35
2022-08-26T19:58:43.939Z,39.41
2022-08-26T20:01:10.820Z,39.72
2022-08-26T20:03:38.297Z,39.88
2022-08-26T20:06:06.792Z,39.89
2022-08-26T20:08:34.685Z,40.27
2022-08-26T20:11:04.927Z,40.21
2022-08-26T20:13:32.839Z,40.49
2022-08-26T20:15:59.068Z,40.61
2022-08-26T20:18:43.922Z,40.64
2022-08-26T20:21:25.856Z,40.89
2022-08-26T20:23:54.621Z,40.88
2022-08-26T20:26:20.848Z,41.07
2022-08-26T20:28:47.172Z,41.15
2022-08-26T20:31:18.699Z,41.02
2022-08-26T20:33:47.579Z,41.36
2022-08-26T20:36:15.535Z,41.25
2022-08-26T20:38:42.057Z,41.13
2022-08-26T20:41:08.363Z,41.48
2022-08-26T20:43:34.627Z,41.37
2022-08-26T20:46:00.836Z,41.42
2022-08-26T20:48:27.209Z,41.38
2022-08-26T20:50:58.537Z,41.47
2022-08-26T20:53:26.422Z,41.58
2022-08-26T20:55:53.425Z,41.58
2022-08-26T20:58:22.810Z,41.71
2022-08-26T21:01:19.809Z,41.79
2022-08-26T21:03:48.208Z,42.03
2022-08-26T21:06:15.725Z,41.94
2022-08-26T21:08:43.255Z,41.97
2022-08-26T21:11:11.786Z,42.23
2022-08-26T21:14:03.408Z,42.42
2022-08-26T21:16:27.674Z,42.53
2022-08-26T21:18:54.574Z,42.56
2022-08-26T21:21:25.195Z,42.81
2022-08-26T21:23:52.382Z,43.18
2022-08-26T21:26:20.138Z,43.36
2022-08-26T21:28:48.931Z,43.08
2022-08-26T21:31:20.278Z,43.38
2022-08-26T21:33:48.293Z,43.44
2022-08-26T21:36:15.963Z,43.36
2022-08-26T21:38:43.260Z,43.06
2022-08-26T21:41:14.289Z,43.21
2022-08-26T21:43:43.304Z,43.43
2022-08-26T21:46:16.331Z,43.45
2022-08-26T21:48:50.973Z,43.66
2022-08-26T21:51:20.869Z,43.57
2022-08-26T21:53:48.437Z,43.73
2022-08-26T21:56:18.537Z,43.68
2022-08-26T21:58:45.955Z,43.91
2022-08-26T22:01:17.477Z,43.82
2022-08-26T22:03:46.852Z,43.95
2022-08-26T22:06:21.033Z,43.95
2022-08-26T22:08:48.210Z,43.95
2022-08-26T22:11:16.095Z,44.03
2022-08-26T22:13:43.839Z,44.03
2022-08-26T22:16:11.903Z,44.14
2022-08-26T22:18:40.199Z,44.09
2022-08-26T22:21:11.273Z,44.42
2022-08-26T22:23:39.281Z,44.60
2022-08-26T22:26:08.199Z,44.66
2022-08-26T22:28:36.097Z,44.62
2022-08-26T22:31:03.693Z,44.77
2022-08-26T22:33:30.619Z,44.92
2022-08-26T22:35:57.649Z,45.07
2022-08-26T22:38:24.607Z,44.98
2022-08-26T22:40:57.546Z,45.28
2022-08-26T22:43:25.853Z,45.58
2022-08-26T22:45:53.829Z,45.68
2022-08-26T22:48:24.168Z,45.65
2022-08-26T22:50:56.137Z,45.81
2022-08-26T22:53:25.397Z,45.93
2022-08-26T22:55:52.244Z,45.98
2022-08-26T22:58:19.320Z,46.19
2022-08-26T23:00:48.178Z,46.34
2022-08-26T23:03:17.223Z,46.54
2022-08-26T23:05:45.621Z,46.71
2022-08-26T23:08:14.150Z,46.81
2022-08-26T23:10:43.681Z,46.96
2022-08-26T23:13:11.382Z,47.19
2022-08-26T23:15:39.425Z,47.14
2022-08-26T23:18:06.709Z,47.27
2022-08-26T23:20:33.906Z,47.36
2022-08-26T23:23:00.800Z,47.53
2022-08-26T23:25:29.783Z,47.80
2022-08-26T23:27:57.445Z,47.87
2022-08-26T23:30:26.969Z,47.94
2022-08-26T23:32:54.845Z,48.27
2022-08-26T23:35:22.359Z,48.58
2022-08-26T23:37:53.254Z,48.63
2022-08-26T23:40:33.991Z,48.84
2022-08-26T23:43:03.667Z,49.03
2022-08-26T23:45:32.184Z,49.11
2022-08-26T23:47:59.498Z,49.28
2022-08-26T23:50:48.317Z,49.51
2022-08-26T23:53:22.225Z,49.62
2022-08-26T23:55:52.306Z,49.65
2022-08-26T23:58:21.358Z,49.89
